CheckWX is a tool to help pilots better visualize weather data.  It is not intended as a substitute for an official pre-flight weather briefing.

15:53:00 UTC

CYVP TAF
Kuujjuaq Airport
Kuujjuaq, Canada
TAF CYVP 050538Z 0506/0518 VRB03KT P6SM FEW060 FEW220 BECMG 0512/0514 28010KT FM051500 28010G20KT P6SM BKN050 BKN220 TEMPO 0516/0518 P6SM -SHRA RMK NXT FCST BY 051200Z

Jul-5@
06:00 UTC

Jul-5 @ 06:00 UTC

Jul-5@
12:00 UTC

Jul-5 @ 12:00 UTC

TAF CYVP 050538Z 0506/0518 VRB03KT P6SM FEW060 FEW220

Expired

Wind
  • Variable at 3 KTS
Cloud Levels
  • Few at 6,000' AGL
  • Few at 22,000' AGL

Jul-5@
12:00 UTC

Jul-5 @ 12:00 UTC

Jul-5@
15:00 UTC

Jul-5 @ 15:00 UTC

BECMG 0512/0514 28010KT

Expired

Wind
  • 280° at 10 KTS
Cloud Levels
  • Few at 6,000' AGL
  • Few at 22,000' AGL

Jul-5@
15:00 UTC

Jul-5 @ 15:00 UTC

Jul-5@
18:00 UTC

Jul-5 @ 18:00 UTC

FM051500 28010G20KT P6SM BKN050 BKN220

From

From Standard forecast or significant change

Wind
  • 280° at 10 KTS
  • {Gusting to 20 KTS
Cloud Levels
  • Broken at 5,000' AGL
  • Broken at 22,000' AGL

Jul-5@
16:00 UTC

Jul-5 @ 16:00 UTC

Jul-5@
18:00 UTC

Jul-5 @ 18:00 UTC

TEMPO 0516/0518 P6SM -SHRA RMK NXT FCST BY 051200Z

Temporary

Temporary Changes expected for less than half the time period

Conditions
Light Showers, Rain
Cloud Levels